Time;durP1;ratioP1;P1;durP2;ratioP2;P2;SDS_P1;SDS_P2;PMS_P1;PMS_P2;Temp;Humidity;BMP_temperature;BMP_pressure;BME280_temperature;BME280_humidity;BME280_pressure;Samples;Min_cycle;Max_cycle;Signal;HPM_P1;HPM_P2
2022/03/26 00:00:23;;;;;;;;;;;6.10;99.90;;;;;;5178495;27;20017;-70
2022/03/26 00:02:49;;;;;;;;;;;6.40;99.90;;;;;;5177862;27;19923;-68
2022/03/26 00:05:15;;;;;;;;;;;7.10;99.90;;;;;;5159958;27;20025;-69
2022/03/26 00:07:41;;;;;;;;;;;6.00;99.90;;;;;;5178563;27;19927;-69
2022/03/26 00:10:07;;;;;;;;;;;6.50;99.90;;;;;;5178462;27;19971;-68
2022/03/26 00:12:33;;;;;;;;;;;4.70;99.90;;;;;;5178239;27;19923;-69
2022/03/26 00:14:59;;;;;;;;;;;6.00;99.90;;;;;;5178226;27;19923;-69
2022/03/26 00:17:25;;;;;;;;;;;6.00;99.90;;;;;;5178076;27;19929;-71
2022/03/26 00:19:51;;;;;;;;;;;6.00;99.90;;;;;;5178087;27;19923;-70
2022/03/26 00:22:17;;;;;;;;;;;6.00;99.90;;;;;;5178231;27;19930;-72
2022/03/26 00:24:42;;;;;;;;;;;6.50;99.90;;;;;;5178160;27;19923;-69
2022/03/26 00:27:08;;;;;;;;;;;5.90;99.90;;;;;;5178035;27;20017;-69
2022/03/26 00:29:33;;;;;;;;;;;5.90;99.90;;;;;;5159503;27;19930;-70
2022/03/26 00:31:59;;;;;;;;;;;6.20;99.90;;;;;;5159539;27;19923;-70
2022/03/26 00:34:25;;;;;;;;;;;5.90;99.90;;;;;;5177623;27;20298;-68
2022/03/26 00:36:50;;;;;;;;;;;6.00;99.90;;;;;;5177993;27;19933;-72
2022/03/26 00:39:16;;;;;;;;;;;6.70;99.90;;;;;;5159578;27;20301;-69
2022/03/26 00:41:41;;;;;;;;;;;6.20;99.90;;;;;;5177671;27;20289;-68
2022/03/26 00:44:07;;;;;;;;;;;5.90;99.90;;;;;;5177585;27;20029;-69
2022/03/26 00:46:32;;;;;;;;;;;5.90;99.90;;;;;;5141918;27;19974;-71
2022/03/26 00:48:59;;;;;;;;;;;6.40;99.90;;;;;;5177547;27;19930;-69
2022/03/26 00:51:25;;;;;;;;;;;5.90;99.90;;;;;;5159123;27;19923;-69
2022/03/26 00:53:51;;;;;;;;;;;5.90;99.90;;;;;;5177547;27;20292;-70
2022/03/26 00:56:16;;;;;;;;;;;5.90;99.90;;;;;;5177313;27;19923;-69
2022/03/26 00:58:42;;;;;;;;;;;7.40;99.90;;;;;;5177261;27;19929;-70
2022/03/26 01:01:08;;;;;;;;;;;5.80;99.90;;;;;;5177210;27;19923;-69
2022/03/26 01:03:34;;;;;;;;;;;6.80;99.90;;;;;;5158896;27;19923;-69
2022/03/26 01:05:59;;;;;;;;;;;5.70;99.90;;;;;;5158543;27;19927;-69
2022/03/26 01:08:25;;;;;;;;;;;5.70;99.90;;;;;;5158969;27;19977;-70
2022/03/26 01:10:50;;;;;;;;;;;6.20;99.90;;;;;;5177264;27;19929;-69
2022/03/26 01:13:16;;;;;;;;;;;6.00;99.90;;;;;;5157971;27;19922;-69
2022/03/26 01:15:42;;;;;;;;;;;6.10;99.90;;;;;;5176445;27;20277;-69
2022/03/26 01:18:09;;;;;;;;;;;5.60;99.90;;;;;;5177003;27;19927;-69
2022/03/26 01:20:35;;;;;;;;;;;4.00;99.90;;;;;;5176801;27;19922;-69
2022/03/26 01:23:00;;;;;;;;;;;5.60;99.90;;;;;;5177183;27;19947;-69
2022/03/26 01:25:26;;;;;;;;;;;6.30;99.90;;;;;;5158577;27;19945;-69
2022/03/26 01:27:52;;;;;;;;;;;6.20;99.90;;;;;;5176797;27;19971;-68
2022/03/26 01:30:17;;;;;;;;;;;6.10;99.90;;;;;;5157734;27;19967;-69
2022/03/26 01:32:43;;;;;;;;;;;5.70;99.90;;;;;;5158281;27;19922;-72
2022/03/26 01:35:09;;;;;;;;;;;6.90;99.90;;;;;;5157930;27;20017;-69
2022/03/26 01:37:35;;;;;;;;;;;7.20;99.90;;;;;;5158487;27;19923;-69
2022/03/26 01:40:00;;;;;;;;;;;5.70;99.90;;;;;;5158373;27;20278;-68
2022/03/26 01:42:26;;;;;;;;;;;4.30;99.90;;;;;;5176613;27;19930;-69
2022/03/26 01:44:51;;;;;;;;;;;6.40;99.90;;;;;;5176567;27;19930;-68
2022/03/26 01:47:18;;;;;;;;;;;5.80;99.90;;;;;;5176502;27;19975;-71
2022/03/26 01:49:43;;;;;;;;;;;6.10;99.90;;;;;;5176457;27;19929;-70
2022/03/26 01:52:10;;;;;;;;;;;6.10;99.90;;;;;;5176542;27;20021;-68
2022/03/26 01:54:38;;;;;;;;;;;5.90;99.90;;;;;;5176514;27;19922;-68
2022/03/26 01:57:04;;;;;;;;;;;7.10;99.90;;;;;;5176115;27;20313;-70
2022/03/26 01:59:30;;;;;;;;;;;5.90;99.90;;;;;;5176247;27;20006;-69
2022/03/26 02:01:56;;;;;;;;;;;6.00;99.90;;;;;;5158045;27;19923;-69
2022/03/26 02:04:21;;;;;;;;;;;6.30;99.90;;;;;;5157893;27;19978;-69
2022/03/26 02:06:47;;;;;;;;;;;6.10;99.90;;;;;;5176195;27;19937;-70
2022/03/26 02:09:14;;;;;;;;;;;6.00;99.90;;;;;;5157390;27;19923;-69
2022/03/26 02:11:41;;;;;;;;;;;6.60;99.90;;;;;;5176297;27;19926;-70
2022/03/26 02:14:08;;;;;;;;;;;5.80;99.90;;;;;;5175809;27;19984;-70
2022/03/26 02:16:35;;;;;;;;;;;5.70;99.90;;;;;;5175951;27;20319;-68
2022/03/26 02:19:00;;;;;;;;;;;5.70;99.90;;;;;;5140176;27;20027;-69
2022/03/26 02:21:26;;;;;;;;;;;5.60;99.90;;;;;;5175828;27;19923;-71
2022/03/26 02:23:52;;;;;;;;;;;5.60;99.90;;;;;;5176010;27;19923;-70
2022/03/26 02:26:19;;;;;;;;;;;5.60;99.90;;;;;;5142519;27;19929;-69
2022/03/26 02:28:46;;;;;;;;;;;6.00;99.90;;;;;;5179947;27;19922;-70
2022/03/26 02:31:12;;;;;;;;;;;7.40;99.90;;;;;;5180029;27;19927;-69
2022/03/26 02:33:37;;;;;;;;;;;6.00;99.90;;;;;;5179931;27;19923;-69
2022/03/26 02:36:03;;;;;;;;;;;5.90;99.90;;;;;;5179816;27;19945;-69
2022/03/26 02:38:29;;;;;;;;;;;5.40;99.90;;;;;;5180073;27;20381;-68
2022/03/26 02:40:54;;;;;;;;;;;5.50;99.90;;;;;;5179924;27;19933;-70
2022/03/26 02:43:20;;;;;;;;;;;5.50;99.90;;;;;;5179860;27;20441;-69
2022/03/26 02:45:46;;;;;;;;;;;6.60;99.90;;;;;;5179723;27;20026;-71
2022/03/26 02:48:13;;;;;;;;;;;5.70;99.90;;;;;;5161009;27;20448;-69
2022/03/26 02:50:42;;;;;;;;;;;5.50;99.90;;;;;;5179692;27;19931;-69
2022/03/26 02:53:08;;;;;;;;;;;5.70;99.90;;;;;;5179770;27;19927;-69
2022/03/26 02:55:34;;;;;;;;;;;6.40;99.90;;;;;;5161314;27;19930;-70
2022/03/26 02:58:00;;;;;;;;;;;5.90;99.90;;;;;;5160236;27;19930;-69
2022/03/26 03:00:26;;;;;;;;;;;5.20;99.90;;;;;;5179371;27;19923;-71
2022/03/26 03:02:52;;;;;;;;;;;5.20;99.90;;;;;;5179436;27;19979;-71
2022/03/26 03:05:17;;;;;;;;;;;5.70;99.90;;;;;;5179212;27;19923;-68
2022/03/26 03:07:43;;;;;;;;;;;5.30;99.90;;;;;;5179153;27;19923;-69
2022/03/26 03:10:09;;;;;;;;;;;5.90;99.90;;;;;;5179410;27;20423;-68
2022/03/26 03:12:34;;;;;;;;;;;4.20;99.90;;;;;;5179028;27;19923;-70
2022/03/26 03:15:00;;;;;;;;;;;5.50;99.90;;;;;;5179241;27;19923;-68
2022/03/26 03:17:25;;;;;;;;;;;5.30;99.90;;;;;;5160524;27;20388;-70
2022/03/26 03:19:51;;;;;;;;;;;5.30;99.90;;;;;;5179084;27;20297;-71
2022/03/26 03:22:16;;;;;;;;;;;6.30;99.90;;;;;;5143642;27;19923;-69
2022/03/26 03:24:42;;;;;;;;;;;5.20;99.90;;;;;;5161050;27;20266;-69
2022/03/26 03:27:08;;;;;;;;;;;5.30;99.90;;;;;;5160971;27;19922;-69
2022/03/26 03:29:34;;;;;;;;;;;5.40;99.90;;;;;;5179205;27;19930;-69
2022/03/26 03:31:59;;;;;;;;;;;6.20;99.90;;;;;;5179111;27;20373;-68
2022/03/26 03:34:25;;;;;;;;;;;6.50;99.90;;;;;;5160033;27;19971;-69
2022/03/26 03:36:50;;;;;;;;;;;5.40;99.90;;;;;;5178020;27;19923;-69
2022/03/26 03:39:16;;;;;;;;;;;5.40;99.90;;;;;;5178796;27;19922;-69
2022/03/26 03:41:42;;;;;;;;;;;5.40;99.90;;;;;;5160691;27;19931;-69
2022/03/26 03:44:07;;;;;;;;;;;5.60;99.90;;;;;;5160366;27;19922;-70
2022/03/26 03:46:33;;;;;;;;;;;6.40;99.90;;;;;;5160479;27;19922;-71
2022/03/26 03:48:59;;;;;;;;;;;6.30;99.90;;;;;;5178807;27;19923;-69
2022/03/26 03:51:25;;;;;;;;;;;5.40;99.90;;;;;;5178722;27;19923;-68
2022/03/26 03:53:51;;;;;;;;;;;5.40;99.90;;;;;;5178502;27;20021;-71
2022/03/26 03:56:16;;;;;;;;;;;5.80;99.90;;;;;;5178715;27;19977;-70
2022/03/26 03:58:42;;;;;;;;;;;5.40;99.90;;;;;;5178628;27;19923;-69
2022/03/26 04:01:07;;;;;;;;;;;5.40;99.90;;;;;;5178578;27;20301;-69
2022/03/26 04:03:33;;;;;;;;;;;5.80;99.90;;;;;;5160208;27;19923;-68
2022/03/26 04:05:59;;;;;;;;;;;5.30;99.90;;;;;;5178344;27;20206;-69
2022/03/26 04:08:25;;;;;;;;;;;5.10;99.90;;;;;;5159874;27;19923;-70
2022/03/26 04:10:50;;;;;;;;;;;5.00;99.90;;;;;;5178297;27;19923;-69
2022/03/26 04:13:16;;;;;;;;;;;4.90;99.90;;;;;;5178285;27;20388;-69
2022/03/26 04:15:41;;;;;;;;;;;5.40;99.90;;;;;;5159743;27;19927;-69
2022/03/26 04:18:07;;;;;;;;;;;4.90;99.90;;;;;;5178302;27;19922;-69
2022/03/26 04:20:34;;;;;;;;;;;3.90;99.90;;;;;;5178130;27;20400;-68
2022/03/26 04:22:59;;;;;;;;;;;5.00;99.90;;;;;;5178010;27;19923;-69
2022/03/26 04:25:25;;;;;;;;;;;5.10;99.90;;;;;;5177918;27;20422;-69
2022/03/26 04:27:51;;;;;;;;;;;4.90;99.90;;;;;;5178158;27;19948;-70
2022/03/26 04:30:16;;;;;;;;;;;5.10;99.90;;;;;;5177957;27;19967;-68
2022/03/26 04:32:42;;;;;;;;;;;5.90;99.90;;;;;;5159504;27;19975;-69
2022/03/26 04:35:08;;;;;;;;;;;5.10;99.90;;;;;;5177847;27;20373;-69
2022/03/26 04:37:34;;;;;;;;;;;4.80;99.90;;;;;;5177785;27;19990;-69
2022/03/26 04:40:00;;;;;;;;;;;4.80;99.90;;;;;;5177634;27;19958;-69
2022/03/26 04:42:25;;;;;;;;;;;4.80;99.90;;;;;;5177578;27;20289;-69
2022/03/26 04:44:51;;;;;;;;;;;4.80;99.90;;;;;;5177947;27;20288;-69
2022/03/26 04:47:17;;;;;;;;;;;4.70;99.90;;;;;;5177636;27;19923;-69
2022/03/26 04:49:42;;;;;;;;;;;5.20;99.90;;;;;;5159210;27;19930;-69
2022/03/26 04:52:08;;;;;;;;;;;4.60;99.90;;;;;;5177743;27;19923;-70
2022/03/26 04:54:33;;;;;;;;;;;4.60;99.90;;;;;;5158622;27;20014;-68
2022/03/26 04:56:59;;;;;;;;;;;6.10;99.90;;;;;;5177242;27;19922;-72
2022/03/26 04:59:25;;;;;;;;;;;5.50;99.90;;;;;;5177106;27;19940;-70
2022/03/26 05:01:50;;;;;;;;;;;4.50;99.90;;;;;;5158980;27;19922;-70
2022/03/26 05:04:16;;;;;;;;;;;5.30;99.90;;;;;;5158523;27;19929;-69
2022/03/26 05:06:41;;;;;;;;;;;4.50;99.90;;;;;;5177206;27;19933;-69
2022/03/26 05:09:07;;;;;;;;;;;5.20;99.90;;;;;;5158524;27;19923;-71
2022/03/26 05:11:33;;;;;;;;;;;5.20;99.90;;;;;;5176954;27;19945;-71
2022/03/26 05:13:59;;;;;;;;;;;4.80;99.90;;;;;;5177128;27;19930;-72
2022/03/26 05:16:24;;;;;;;;;;;4.50;99.90;;;;;;5176878;27;20323;-72
2022/03/26 05:18:50;;;;;;;;;;;4.50;99.90;;;;;;5177045;27;20025;-72
2022/03/26 05:21:15;;;;;;;;;;;5.10;99.90;;;;;;5176951;27;20293;-71
2022/03/26 05:23:41;;;;;;;;;;;4.60;99.90;;;;;;5158349;27;19974;-71
2022/03/26 05:26:07;;;;;;;;;;;4.50;99.90;;;;;;5158455;27;20025;-71
2022/03/26 05:28:32;;;;;;;;;;;4.60;99.90;;;;;;5176882;27;20317;-72
2022/03/26 05:30:58;;;;;;;;;;;5.80;99.90;;;;;;5158701;27;19929;-72
2022/03/26 05:33:24;;;;;;;;;;;5.20;99.90;;;;;;5158212;27;19975;-73
2022/03/26 05:35:49;;;;;;;;;;;4.60;99.90;;;;;;5158465;27;19979;-74
2022/03/26 05:38:15;;;;;;;;;;;5.80;99.90;;;;;;5157973;27;19970;-71
2022/03/26 05:40:41;;;;;;;;;;;4.50;99.90;;;;;;5158209;27;20429;-71
2022/03/26 05:43:06;;;;;;;;;;;4.50;99.90;;;;;;5176419;27;19927;-71
2022/03/26 05:45:32;;;;;;;;;;;4.50;99.90;;;;;;5176412;27;20357;-71
2022/03/26 05:48:00;;;;;;;;;;;4.50;99.90;;;;;;5158133;27;19954;-75
2022/03/26 05:50:26;;;;;;;;;;;4.50;99.90;;;;;;5176583;27;19929;-71
2022/03/26 05:52:51;;;;;;;;;;;4.50;99.90;;;;;;5157599;27;20017;-72
2022/03/26 05:55:17;;;;;;;;;;;5.70;99.90;;;;;;5158094;27;19923;-73
2022/03/26 05:57:42;;;;;;;;;;;4.50;99.90;;;;;;5157751;27;19974;-71
2022/03/26 06:00:08;;;;;;;;;;;4.90;99.90;;;;;;5176056;27;19926;-71
2022/03/26 06:02:34;;;;;;;;;;;4.60;99.90;;;;;;5158051;27;19922;-72
2022/03/26 06:05:00;;;;;;;;;;;5.10;99.90;;;;;;5176293;27;19929;-72
2022/03/26 06:07:25;;;;;;;;;;;5.40;99.90;;;;;;5176361;27;19922;-71
2022/03/26 06:09:51;;;;;;;;;;;5.00;99.90;;;;;;5157761;27;20396;-72
2022/03/26 06:12:16;;;;;;;;;;;4.70;99.90;;;;;;5176176;27;19923;-71
2022/03/26 06:14:42;;;;;;;;;;;4.70;99.90;;;;;;5157309;27;19922;-74
2022/03/26 06:17:08;;;;;;;;;;;4.80;99.90;;;;;;5158031;27;19922;-72
2022/03/26 06:19:33;;;;;;;;;;;4.80;99.90;;;;;;5157604;27;19923;-72
2022/03/26 06:21:59;;;;;;;;;;;4.90;99.90;;;;;;5157603;27;20330;-72
2022/03/26 06:24:24;;;;;;;;;;;5.60;99.90;;;;;;5176205;27;19929;-72
2022/03/26 06:26:50;;;;;;;;;;;4.90;99.90;;;;;;5176031;27;19923;-72
2022/03/26 06:29:16;;;;;;;;;;;5.50;99.90;;;;;;5156847;27;19923;-72
2022/03/26 06:31:42;;;;;;;;;;;5.80;99.90;;;;;;5157628;27;19967;-72
2022/03/26 06:34:08;;;;;;;;;;;6.00;99.90;;;;;;5157568;27;19923;-70
2022/03/26 06:36:36;;;;;;;;;;;5.00;99.90;;;;;;5176074;27;19922;-71
2022/03/26 06:39:03;;;;;;;;;;;5.00;99.90;;;;;;5156914;27;20282;-74
2022/03/26 06:41:29;;;;;;;;;;;5.00;99.90;;;;;;5175868;27;19932;-71
2022/03/26 06:43:54;;;;;;;;;;;5.00;99.90;;;;;;5175830;27;19926;-72
2022/03/26 06:46:20;;;;;;;;;;;5.00;99.90;;;;;;5175833;27;19975;-72
2022/03/26 06:48:45;;;;;;;;;;;5.00;99.90;;;;;;5157758;27;19930;-73
2022/03/26 06:51:11;;;;;;;;;;;5.10;99.90;;;;;;5175993;27;20011;-72
2022/03/26 06:53:37;;;;;;;;;;;5.60;99.90;;;;;;5175782;27;19926;-72
2022/03/26 06:56:05;;;;;;;;;;;5.50;99.90;;;;;;5175605;27;19923;-72
2022/03/26 06:58:30;;;;;;;;;;;5.30;99.90;;;;;;5175488;27;19923;-71
2022/03/26 07:00:58;;;;;;;;;;;5.40;99.90;;;;;;5175563;27;19994;-74
2022/03/26 07:03:24;;;;;;;;;;;6.20;99.90;;;;;;5175828;27;19923;-72
2022/03/26 07:05:50;;;;;;;;;;;5.50;99.90;;;;;;5175823;27;20021;-71
2022/03/26 07:08:15;;;;;;;;;;;6.60;99.90;;;;;;5157460;27;20258;-71
2022/03/26 07:10:44;;;;;;;;;;;5.60;99.90;;;;;;5175776;27;19923;-73
2022/03/26 07:13:10;;;;;;;;;;;5.70;99.90;;;;;;5177721;27;20278;-72
2022/03/26 07:15:36;;;;;;;;;;;5.80;99.90;;;;;;5179263;27;19923;-72
2022/03/26 07:18:02;;;;;;;;;;;6.80;99.90;;;;;;5161207;27;20394;-73
2022/03/26 07:20:27;;;;;;;;;;;6.10;99.90;;;;;;5179494;27;20373;-73
2022/03/26 07:22:53;;;;;;;;;;;6.20;99.90;;;;;;5179112;27;19923;-72
2022/03/26 07:25:18;;;;;;;;;;;6.30;99.90;;;;;;5179343;27;19926;-71
2022/03/26 07:27:44;;;;;;;;;;;6.50;99.90;;;;;;5179062;27;19923;-73
2022/03/26 07:30:11;;;;;;;;;;;6.50;99.90;;;;;;5178959;27;19974;-74
2022/03/26 07:32:37;;;;;;;;;;;6.60;99.90;;;;;;5179215;27;19977;-72
2022/03/26 07:35:03;;;;;;;;;;;6.60;99.90;;;;;;5179125;27;19923;-73
2022/03/26 07:37:28;;;;;;;;;;;6.80;99.90;;;;;;5160780;27;19958;-72
2022/03/26 07:39:54;;;;;;;;;;;6.90;99.90;;;;;;5179083;27;19973;-71
2022/03/26 07:42:19;;;;;;;;;;;7.00;99.90;;;;;;5177762;27;19922;-72
2022/03/26 07:44:45;;;;;;;;;;;8.20;99.90;;;;;;5178343;27;19922;-72
2022/03/26 07:47:11;;;;;;;;;;;7.20;99.90;;;;;;5178660;27;20302;-72
2022/03/26 07:49:36;;;;;;;;;;;7.30;99.90;;;;;;5178644;27;19923;-72
2022/03/26 07:52:02;;;;;;;;;;;7.60;99.90;;;;;;5178904;27;20370;-74
2022/03/26 07:54:28;;;;;;;;;;;7.50;99.90;;;;;;5178662;27;19923;-71
2022/03/26 07:56:53;;;;;;;;;;;8.30;99.90;;;;;;5178314;27;19930;-72
2022/03/26 07:59:19;;;;;;;;;;;7.70;99.90;;;;;;5178434;27;19922;-74
2022/03/26 08:01:44;;;;;;;;;;;7.70;99.90;;;;;;5160023;27;20381;-72
2022/03/26 08:04:10;;;;;;;;;;;7.80;99.90;;;;;;5178683;27;20262;-73
2022/03/26 08:06:35;;;;;;;;;;;8.00;99.90;;;;;;5160310;27;20396;-71
2022/03/26 08:09:01;;;;;;;;;;;8.10;99.90;;;;;;5178507;27;19927;-75
2022/03/26 08:11:27;;;;;;;;;;;8.20;99.90;;;;;;5178369;27;19923;-72
2022/03/26 08:13:52;;;;;;;;;;;7.90;99.90;;;;;;5178104;27;20330;-72
2022/03/26 08:16:19;;;;;;;;;;;8.70;99.90;;;;;;5159061;27;19923;-72
2022/03/26 08:18:45;;;;;;;;;;;8.40;99.90;;;;;;5159956;27;19930;-74
2022/03/26 08:21:11;;;;;;;;;;;8.60;99.90;;;;;;5159167;27;19922;-72
2022/03/26 08:23:36;;;;;;;;;;;9.50;99.90;;;;;;5177843;27;19923;-72
2022/03/26 08:26:22;;;;;;;;;;;8.70;99.90;;;;;;5178012;27;19995;-72
2022/03/26 08:28:48;;;;;;;;;;;9.20;99.90;;;;;;5177902;27;19945;-72
2022/03/26 08:31:14;;;;;;;;;;;9.00;99.90;;;;;;5177795;27;19933;-69
2022/03/26 08:33:40;;;;;;;;;;;9.40;99.90;;;;;;5177981;27;19922;-69
2022/03/26 08:36:06;;;;;;;;;;;7.80;99.90;;;;;;5159389;27;19923;-70
2022/03/26 08:38:31;;;;;;;;;;;9.40;99.90;;;;;;5177840;27;19929;-69
2022/03/26 08:40:57;;;;;;;;;;;9.40;99.90;;;;;;5159407;27;19929;-70
2022/03/26 08:43:22;;;;;;;;;;;9.70;99.90;;;;;;5177548;27;20363;-70
2022/03/26 08:45:48;;;;;;;;;;;9.70;99.90;;;;;;5177480;27;19937;-68
2022/03/26 08:48:15;;;;;;;;;;;9.70;99.90;;;;;;5159262;27;19923;-72
2022/03/26 08:50:41;;;;;;;;;;;9.80;99.90;;;;;;5177699;27;19929;-70
2022/03/26 08:53:07;;;;;;;;;;;9.80;99.90;;;;;;5177567;27;19926;-70
2022/03/26 08:55:32;;;;;;;;;;;10.80;99.90;;;;;;5177494;27;19930;-70
2022/03/26 08:57:58;;;;;;;;;;;10.10;99.90;;;;;;5177227;27;19923;-72
2022/03/26 09:00:26;;;;;;;;;;;10.20;99.90;;;;;;5177104;27;19973;-70
2022/03/26 09:02:53;;;;;;;;;;;10.30;99.90;;;;;;5177336;27;19922;-69
2022/03/26 09:05:18;;;;;;;;;;;10.40;99.90;;;;;;5177332;27;19922;-72
2022/03/26 09:07:44;;;;;;;;;;;10.50;99.90;;;;;;5177269;27;20282;-70
2022/03/26 09:10:10;;;;;;;;;;;10.60;99.90;;;;;;5177175;27;19966;-70
2022/03/26 09:12:36;;;;;;;;;;;10.70;99.90;;;;;;5176985;27;20330;-70
2022/03/26 09:15:03;;;;;;;;;;;10.90;99.90;;;;;;5176857;27;20352;-72
2022/03/26 09:17:29;;;;;;;;;;;11.00;99.90;;;;;;5176982;27;19945;-70
2022/03/26 09:19:55;;;;;;;;;;;11.10;99.90;;;;;;5158834;27;20376;-70
2022/03/26 09:22:20;;;;;;;;;;;11.30;99.90;;;;;;5177118;27;20277;-70
2022/03/26 09:24:46;;;;;;;;;;;11.40;99.90;;;;;;5177003;27;19923;-70
2022/03/26 09:27:11;;;;;;;;;;;11.50;99.90;;;;;;5176868;27;20013;-71
2022/03/26 09:29:37;;;;;;;;;;;11.60;99.90;;;;;;5176669;27;19947;-70
2022/03/26 09:32:03;;;;;;;;;;;11.70;99.90;;;;;;5158053;27;19926;-70
2022/03/26 09:34:29;;;;;;;;;;;11.90;99.90;;;;;;5157822;27;20003;-70
2022/03/26 09:36:54;;;;;;;;;;;12.00;99.90;;;;;;5157506;27;20017;-69
2022/03/26 09:39:20;;;;;;;;;;;12.20;99.90;;;;;;5176772;27;19923;-70
2022/03/26 09:41:47;;;;;;;;;;;12.30;99.90;;;;;;5176579;27;19962;-71
2022/03/26 09:44:12;;;;;;;;;;;12.40;99.90;;;;;;5158055;27;20021;-70
2022/03/26 09:46:38;;;;;;;;;;;12.50;99.90;;;;;;5176464;27;19973;-70
2022/03/26 09:49:03;;;;;;;;;;;12.80;99.90;;;;;;5176784;27;20292;-70
2022/03/26 09:51:29;;;;;;;;;;;12.80;99.90;;;;;;5176713;27;19929;-70
2022/03/26 09:53:56;;;;;;;;;;;12.80;99.90;;;;;;5158043;27;20503;-70
2022/03/26 09:56:24;;;;;;;;;;;13.00;99.90;;;;;;5157178;27;20287;-71
2022/03/26 09:59:08;;;;;;;;;;;13.00;99.90;;;;;;5158015;27;19922;-70
2022/03/26 10:01:33;;;;;;;;;;;13.10;99.90;;;;;;5176451;27;19923;-71
2022/03/26 10:04:18;;;;;;;;;;;13.20;99.90;;;;;;5176432;27;19975;-72
2022/03/26 10:06:48;;;;;;;;;;;13.30;99.90;;;;;;5176424;27;19923;-69
2022/03/26 10:09:24;;;;;;;;;;;13.40;99.90;;;;;;5176280;27;19930;-72
2022/03/26 10:11:57;;;;;;;;;;;13.50;99.90;;;;;;5157743;27;20424;-70
2022/03/26 10:14:23;;;;;;;;;;;13.60;99.90;;;;;;5176169;27;19930;-70
2022/03/26 10:16:52;;;;;;;;;;;13.70;99.90;;;;;;5176239;27;19923;-69
2022/03/26 10:19:21;;;;;;;;;;;13.80;99.90;;;;;;5176237;27;19922;-70
2022/03/26 10:21:48;;;;;;;;;;;13.90;99.90;;;;;;5176371;27;19923;-71
2022/03/26 10:24:14;;;;;;;;;;;14.00;99.90;;;;;;5176099;27;19922;-73
2022/03/26 10:26:39;;;;;;;;;;;14.00;99.90;;;;;;5175960;27;19922;-70
2022/03/26 10:29:14;;;;;;;;;;;14.20;99.90;;;;;;5157506;27;20025;-72
2022/03/26 10:34:23;;;;;;;;;;;14.30;99.90;;;;;;5175865;27;20463;-73
2022/03/26 10:37:01;;;;;;;;;;;14.40;99.90;;;;;;5176005;27;19923;-71
2022/03/26 10:39:28;;;;;;;;;;;14.40;99.90;;;;;;5176206;27;19922;-71
2022/03/26 10:41:54;;;;;;;;;;;14.50;99.90;;;;;;5175899;27;20025;-71
2022/03/26 10:44:24;;;;;;;;;;;14.50;99.90;;;;;;5175961;27;20381;-70
2022/03/26 10:46:49;;;;;;;;;;;14.60;99.90;;;;;;5177747;27;19987;-69
2022/03/26 10:49:24;;;;;;;;;;;14.70;99.90;;;;;;5179778;27;20397;-70
2022/03/26 10:51:49;;;;;;;;;;;14.80;99.90;;;;;;5179926;27;19922;-71
2022/03/26 10:54:16;;;;;;;;;;;14.80;99.90;;;;;;5179959;27;19929;-70
2022/03/26 10:56:41;;;;;;;;;;;14.90;99.90;;;;;;5179784;27;20305;-70
2022/03/26 10:59:07;;;;;;;;;;;14.70;99.90;;;;;;5179755;27;19927;-71
2022/03/26 11:01:34;;;;;;;;;;;14.80;99.90;;;;;;5179647;27;19923;-71
2022/03/26 11:03:59;;;;;;;;;;;14.70;99.90;;;;;;5179689;27;19975;-70
2022/03/26 11:06:25;;;;;;;;;;;14.80;99.90;;;;;;5179499;27;19922;-71
2022/03/26 11:08:53;;;;;;;;;;;14.80;99.90;;;;;;5161421;27;20285;-70
2022/03/26 11:11:19;;;;;;;;;;;14.80;99.90;;;;;;5179510;27;19926;-70
2022/03/26 11:13:51;;;;;;;;;;;14.80;99.90;;;;;;5179528;27;19923;-70
2022/03/26 11:16:20;;;;;;;;;;;14.90;99.90;;;;;;5179469;27;19923;-69
2022/03/26 11:18:52;;;;;;;;;;;14.90;99.90;;;;;;5179295;27;20036;-71
2022/03/26 11:21:23;;;;;;;;;;;15.00;99.90;;;;;;5179255;27;19923;-70
2022/03/26 11:23:58;;;;;;;;;;;15.10;99.90;;;;;;5179504;27;19946;-72
2022/03/26 11:26:41;;;;;;;;;;;15.20;99.90;;;;;;5179381;27;19974;-71
2022/03/26 11:29:07;;;;;;;;;;;15.30;99.90;;;;;;5179196;27;20412;-70
2022/03/26 11:31:44;;;;;;;;;;;15.30;98.50;;;;;;5160620;27;19923;-70
2022/03/26 11:34:10;;;;;;;;;;;15.30;99.00;;;;;;5179181;27;20025;-70
2022/03/26 11:36:36;;;;;;;;;;;15.30;99.90;;;;;;5179166;27;19974;-72
2022/03/26 11:39:13;;;;;;;;;;;15.30;99.90;;;;;;5178354;27;19926;-71
2022/03/26 11:41:39;;;;;;;;;;;15.20;99.90;;;;;;5178790;27;19930;-71
2022/03/26 11:44:06;;;;;;;;;;;15.20;99.90;;;;;;5160153;27;19923;-70
2022/03/26 11:52:13;;;;;;;;;;;15.00;99.90;;;;;;5178605;27;19934;-70
2022/03/26 11:54:38;;;;;;;;;;;15.10;99.90;;;;;;5178343;27;20002;-70
2022/03/26 11:57:11;;;;;;;;;;;15.10;99.90;;;;;;5178245;27;20342;-70
2022/03/26 11:59:38;;;;;;;;;;;15.00;99.90;;;;;;5177569;27;19982;-70
2022/03/26 12:02:16;;;;;;;;;;;14.80;99.90;;;;;;5178335;27;19923;-71
2022/03/26 12:04:48;;;;;;;;;;;14.70;99.90;;;;;;5178304;27;19934;-70
2022/03/26 12:07:13;;;;;;;;;;;14.70;99.90;;;;;;5177865;27;20301;-71
2022/03/26 12:09:39;;;;;;;;;;;14.50;99.90;;;;;;5159403;27;19922;-71
2022/03/26 12:12:05;;;;;;;;;;;14.40;99.90;;;;;;5178159;27;19922;-70
2022/03/26 12:15:00;;;;;;;;;;;14.40;99.90;;;;;;5178027;27;19923;-70
2022/03/26 12:17:45;;;;;;;;;;;14.30;99.90;;;;;;5155057;27;19923;-70
2022/03/26 12:20:31;;;;;;;;;;;14.20;99.90;;;;;;5178204;27;20023;-71
2022/03/26 12:23:04;;;;;;;;;;;14.20;99.90;;;;;;5178095;27;19929;-71
2022/03/26 12:25:49;;;;;;;;;;;14.20;99.90;;;;;;5158925;27;19974;-70
2022/03/26 12:28:17;;;;;;;;;;;14.10;99.90;;;;;;5177688;27;19930;-70
2022/03/26 12:30:50;;;;;;;;;;;14.00;99.90;;;;;;5148332;27;20089;-71
2022/03/26 12:33:16;;;;;;;;;;;14.00;99.90;;;;;;5138354;27;19922;-69
2022/03/26 12:35:43;;;;;;;;;;;14.00;99.90;;;;;;5160839;27;20377;-70
2022/03/26 12:38:09;;;;;;;;;;;14.00;99.90;;;;;;5159141;27;19966;-70
2022/03/26 12:40:36;;;;;;;;;;;14.00;99.90;;;;;;5160467;27;19973;-69
2022/03/26 12:43:02;;;;;;;;;;;14.00;99.90;;;;;;5156574;27;19923;-70
2022/03/26 12:45:29;;;;;;;;;;;14.00;99.90;;;;;;5166002;27;19923;-70
2022/03/26 12:47:54;;;;;;;;;;;14.00;99.90;;;;;;5177563;27;19922;-69
2022/03/26 12:50:21;;;;;;;;;;;14.00;99.90;;;;;;5176398;27;19922;-70
2022/03/26 12:52:46;;;;;;;;;;;13.90;99.90;;;;;;5170721;27;19976;-68
2022/03/26 12:55:12;;;;;;;;;;;13.80;99.90;;;;;;5173998;27;20076;-70
2022/03/26 13:00:25;;;;;;;;;;;13.90;99.90;;;;;;5166686;27;19930;-69
2022/03/26 13:03:08;;;;;;;;;;;13.90;99.90;;;;;;5138182;27;19930;-71
2022/03/26 13:05:35;;;;;;;;;;;13.90;99.90;;;;;;5156167;27;20399;-69
2022/03/26 13:08:01;;;;;;;;;;;13.80;99.90;;;;;;5155355;27;19930;-70
2022/03/26 13:10:28;;;;;;;;;;;13.80;99.90;;;;;;5175923;27;19923;-69
2022/03/26 13:12:53;;;;;;;;;;;13.90;99.90;;;;;;5160231;27;19923;-70
2022/03/26 13:15:19;;;;;;;;;;;13.80;99.90;;;;;;5166089;27;20482;-70
2022/03/26 13:17:44;;;;;;;;;;;13.80;99.90;;;;;;5156902;27;19930;-70
2022/03/26 13:20:22;;;;;;;;;;;13.80;99.90;;;;;;5156280;27;20389;-70
2022/03/26 13:22:51;;;;;;;;;;;13.80;99.90;;;;;;5159946;27;19985;-70
2022/03/26 13:25:18;;;;;;;;;;;13.80;99.90;;;;;;5169366;27;20026;-70
2022/03/26 13:27:43;;;;;;;;;;;13.80;99.90;;;;;;5155987;27;19923;-71
2022/03/26 13:30:09;;;;;;;;;;;14.50;99.90;;;;;;5137792;27;20301;-70
2022/03/26 13:32:35;;;;;;;;;;;13.80;99.90;;;;;;5164881;27;19945;-70
2022/03/26 13:35:01;;;;;;;;;;;13.90;99.90;;;;;;5174661;27;20373;-70
2022/03/26 13:37:29;;;;;;;;;;;14.00;99.90;;;;;;5160185;27;19923;-71
2022/03/26 13:39:55;;;;;;;;;;;14.10;99.90;;;;;;5159849;27;20390;-72
2022/03/26 13:42:22;;;;;;;;;;;14.10;99.90;;;;;;5162956;27;20018;-71
2022/03/26 13:44:48;;;;;;;;;;;14.20;99.90;;;;;;5155779;27;20373;-70
2022/03/26 13:47:18;;;;;;;;;;;14.30;99.90;;;;;;5155620;27;19923;-70
2022/03/26 13:49:44;;;;;;;;;;;14.40;99.90;;;;;;5155813;27;19967;-70
2022/03/26 13:52:26;;;;;;;;;;;14.50;99.90;;;;;;5155787;27;19927;-71
2022/03/26 13:54:51;;;;;;;;;;;14.60;99.90;;;;;;5169045;27;19923;-73
2022/03/26 13:57:27;;;;;;;;;;;14.60;99.90;;;;;;5149268;27;19975;-71
2022/03/26 13:59:52;;;;;;;;;;;14.50;99.90;;;;;;5155697;27;19927;-70
2022/03/26 14:02:22;;;;;;;;;;;14.60;99.90;;;;;;5146625;27;19923;-71
2022/03/26 14:04:48;;;;;;;;;;;14.60;99.90;;;;;;5169821;27;19930;-72
2022/03/26 14:07:14;;;;;;;;;;;14.60;99.90;;;;;;5157643;27;20305;-73
2022/03/26 14:09:40;;;;;;;;;;;14.60;99.90;;;;;;5176448;27;19923;-72
2022/03/26 14:12:05;;;;;;;;;;;14.50;99.90;;;;;;5176197;27;19923;-71
2022/03/26 14:14:31;;;;;;;;;;;14.60;99.90;;;;;;5167054;27;20343;-71
2022/03/26 14:16:56;;;;;;;;;;;14.60;99.90;;;;;;5155698;27;19970;-73
2022/03/26 14:19:22;;;;;;;;;;;14.40;99.90;;;;;;5150087;27;19934;-73
2022/03/26 14:21:48;;;;;;;;;;;14.40;99.90;;;;;;5139857;27;19924;-73
2022/03/26 14:24:13;;;;;;;;;;;14.40;99.90;;;;;;5175784;27;19923;-74
2022/03/26 14:26:39;;;;;;;;;;;14.30;99.90;;;;;;5176309;27;19954;-73
2022/03/26 14:29:05;;;;;;;;;;;14.30;99.90;;;;;;5166740;27;19923;-71
2022/03/26 14:31:31;;;;;;;;;;;14.30;99.90;;;;;;5179540;27;19930;-72
2022/03/26 14:33:56;;;;;;;;;;;14.20;99.90;;;;;;5178594;27;20448;-73